sensor_id;sensor_type;location;lat;lon;timestamp;pressure;altitude;pressure_sealevel;temperature;humidity
20023;BME280;10172;42.054;24.546;2023-02-15T00:01:44;99368.59;;;4.48;72.79
20023;BME280;10172;42.054;24.546;2023-02-15T00:04:13;99383.84;;;4.36;73.05
20023;BME280;10172;42.054;24.546;2023-02-15T00:06:39;99382.94;;;4.37;72.99
20023;BME280;10172;42.054;24.546;2023-02-15T00:09:05;99391.72;;;4.37;72.30
20023;BME280;10172;42.054;24.546;2023-02-15T00:11:30;99403.97;;;4.38;72.34
20023;BME280;10172;42.054;24.546;2023-02-15T00:14:06;99397.41;;;4.19;72.87
20023;BME280;10172;42.054;24.546;2023-02-15T00:16:32;99398.72;;;4.70;71.64
20023;BME280;10172;42.054;24.546;2023-02-15T00:18:58;99391.56;;;4.43;72.25
20023;BME280;10172;42.054;24.546;2023-02-15T00:21:27;99398.28;;;4.19;73.39
20023;BME280;10172;42.054;24.546;2023-02-15T00:23:54;99392.00;;;4.25;73.83
20023;BME280;10172;42.054;24.546;2023-02-15T00:26:19;99393.03;;;4.19;73.25
20023;BME280;10172;42.054;24.546;2023-02-15T00:28:44;99381.09;;;4.40;72.50
20023;BME280;10172;42.054;24.546;2023-02-15T00:31:11;99397.19;;;4.28;72.72
20023;BME280;10172;42.054;24.546;2023-02-15T00:33:38;99396.94;;;4.72;71.22
20023;BME280;10172;42.054;24.546;2023-02-15T00:36:06;99400.50;;;4.36;72.52
20023;BME280;10172;42.054;24.546;2023-02-15T00:38:32;99395.50;;;4.27;73.15
20023;BME280;10172;42.054;24.546;2023-02-15T00:41:00;99399.13;;;4.55;72.44
20023;BME280;10172;42.054;24.546;2023-02-15T00:43:27;99406.50;;;4.43;73.85
20023;BME280;10172;42.054;24.546;2023-02-15T00:45:53;99402.78;;;4.50;73.08
20023;BME280;10172;42.054;24.546;2023-02-15T00:48:19;99396.94;;;4.72;71.34
20023;BME280;10172;42.054;24.546;2023-02-15T00:50:46;99396.72;;;4.46;72.52
20023;BME280;10172;42.054;24.546;2023-02-15T00:53:12;99414.34;;;4.44;73.21
20023;BME280;10172;42.054;24.546;2023-02-15T00:55:38;99404.16;;;4.32;73.20
20023;BME280;10172;42.054;24.546;2023-02-15T00:58:05;99401.59;;;4.28;73.92
20023;BME280;10172;42.054;24.546;2023-02-15T01:00:31;99399.47;;;4.43;72.75
20023;BME280;10172;42.054;24.546;2023-02-15T01:02:56;99397.41;;;4.19;74.43
20023;BME280;10172;42.054;24.546;2023-02-15T01:05:21;99397.41;;;4.19;74.29
20023;BME280;10172;42.054;24.546;2023-02-15T01:07:47;99388.34;;;4.32;74.13
20023;BME280;10172;42.054;24.546;2023-02-15T01:10:12;99392.75;;;4.30;73.74
20023;BME280;10172;42.054;24.546;2023-02-15T01:12:38;99380.59;;;4.24;74.58
20023;BME280;10172;42.054;24.546;2023-02-15T01:15:03;99384.69;;;4.02;75.74
20023;BME280;10172;42.054;24.546;2023-02-15T01:17:30;99378.16;;;4.17;74.72
20023;BME280;10172;42.054;24.546;2023-02-15T01:19:56;99393.19;;;4.13;75.71
20023;BME280;10172;42.054;24.546;2023-02-15T01:22:21;99381.19;;;4.37;75.01
20023;BME280;10172;42.054;24.546;2023-02-15T01:24:48;99385.31;;;4.12;75.70
20023;BME280;10172;42.054;24.546;2023-02-15T01:27:14;99360.19;;;4.34;75.01
20023;BME280;10172;42.054;24.546;2023-02-15T01:29:39;99359.50;;;3.91;77.02
20023;BME280;10172;42.054;24.546;2023-02-15T01:32:05;99370.94;;;3.90;77.10
20023;BME280;10172;42.054;24.546;2023-02-15T01:34:30;99364.25;;;4.12;75.77
20023;BME280;10172;42.054;24.546;2023-02-15T01:36:56;99358.63;;;3.90;77.44
20023;BME280;10172;42.054;24.546;2023-02-15T01:39:21;99363.56;;;4.04;77.13
20023;BME280;10172;42.054;24.546;2023-02-15T01:41:46;99351.41;;;4.00;78.16
20023;BME280;10172;42.054;24.546;2023-02-15T01:47:16;99364.28;;;3.75;79.28
20023;BME280;10172;42.054;24.546;2023-02-15T01:49:44;99355.06;;;3.93;78.37
20023;BME280;10172;42.054;24.546;2023-02-15T01:52:14;99361.69;;;4.09;77.20
20023;BME280;10172;42.054;24.546;2023-02-15T01:54:43;99354.09;;;3.97;77.38
20023;BME280;10172;42.054;24.546;2023-02-15T01:57:16;99370.84;;;3.94;77.89
20023;BME280;10172;42.054;24.546;2023-02-15T01:59:47;99360.22;;;3.60;79.32
20023;BME280;10172;42.054;24.546;2023-02-15T02:02:17;99356.91;;;3.52;80.47
20023;BME280;10172;42.054;24.546;2023-02-15T02:04:50;99386.66;;;3.93;79.40
20023;BME280;10172;42.054;24.546;2023-02-15T02:07:19;99378.16;;;3.82;78.72
20023;BME280;10172;42.054;24.546;2023-02-15T02:09:46;99380.25;;;4.03;78.98
20023;BME280;10172;42.054;24.546;2023-02-15T02:12:12;99376.94;;;3.59;80.39
20023;BME280;10172;42.054;24.546;2023-02-15T02:14:38;99372.69;;;3.52;80.95
20023;BME280;10172;42.054;24.546;2023-02-15T02:39:06;99398.13;;;3.92;79.11
20023;BME280;10172;42.054;24.546;2023-02-15T02:44:22;99402.88;;;3.75;81.66
20023;BME280;10172;42.054;24.546;2023-02-15T02:47:02;99409.75;;;4.17;78.32
20023;BME280;10172;42.054;24.546;2023-02-15T02:49:34;99411.66;;;4.12;78.50
20023;BME280;10172;42.054;24.546;2023-02-15T02:52:02;99403.13;;;4.01;79.91
20023;BME280;10172;42.054;24.546;2023-02-15T02:54:28;99402.22;;;3.25;83.40
20023;BME280;10172;42.054;24.546;2023-02-15T02:56:58;99395.25;;;3.23;84.08
20023;BME280;10172;42.054;24.546;2023-02-15T02:59:32;99392.09;;;3.48;82.74
20023;BME280;10172;42.054;24.546;2023-02-15T03:02:18;99411.41;;;3.05;86.28
20023;BME280;10172;42.054;24.546;2023-02-15T03:05:04;99397.56;;;2.51;91.06
20023;BME280;10172;42.054;24.546;2023-02-15T03:07:32;99392.44;;;2.43;91.47
20023;BME280;10172;42.054;24.546;2023-02-15T03:10:00;99397.56;;;2.96;87.73
20023;BME280;10172;42.054;24.546;2023-02-15T03:12:33;99388.09;;;2.88;88.12
20023;BME280;10172;42.054;24.546;2023-02-15T03:17:30;99395.53;;;3.50;84.52
20023;BME280;10172;42.054;24.546;2023-02-15T03:19:59;99399.06;;;3.49;83.72
20023;BME280;10172;42.054;24.546;2023-02-15T03:22:37;99398.63;;;3.29;84.85
20023;BME280;10172;42.054;24.546;2023-02-15T03:25:19;99415.53;;;3.57;82.84
20023;BME280;10172;42.054;24.546;2023-02-15T03:27:49;99405.44;;;3.78;81.59
20023;BME280;10172;42.054;24.546;2023-02-15T03:30:19;99405.78;;;3.62;82.71
20023;BME280;10172;42.054;24.546;2023-02-15T03:32:47;99393.88;;;3.85;82.27
20023;BME280;10172;42.054;24.546;2023-02-15T03:35:13;99404.88;;;4.02;81.80
20023;BME280;10172;42.054;24.546;2023-02-15T03:37:41;99399.97;;;3.87;81.52
20023;BME280;10172;42.054;24.546;2023-02-15T03:43:09;99405.78;;;3.23;85.10
20023;BME280;10172;42.054;24.546;2023-02-15T03:45:37;99400.00;;;3.47;84.59
20023;BME280;10172;42.054;24.546;2023-02-15T03:48:22;99406.44;;;4.09;81.42
20023;BME280;10172;42.054;24.546;2023-02-15T03:50:50;99413.38;;;3.36;84.44
20023;BME280;10172;42.054;24.546;2023-02-15T03:53:35;99404.34;;;3.08;87.16
20023;BME280;10172;42.054;24.546;2023-02-15T03:56:02;99420.41;;;3.36;85.13
20023;BME280;10172;42.054;24.546;2023-02-15T03:58:27;99415.41;;;3.24;85.72
20023;BME280;10172;42.054;24.546;2023-02-15T04:04:35;99420.19;;;3.05;88.97
20023;BME280;10172;42.054;24.546;2023-02-15T04:07:02;99422.97;;;2.96;88.61
20023;BME280;10172;42.054;24.546;2023-02-15T04:09:28;99414.06;;;3.03;87.87
20023;BME280;10172;42.054;24.546;2023-02-15T04:12:12;99426.84;;;2.77;89.47
20023;BME280;10172;42.054;24.546;2023-02-15T04:14:37;99431.25;;;2.24;94.03
20023;BME280;10172;42.054;24.546;2023-02-15T04:17:21;99432.34;;;2.65;93.97
20023;BME280;10172;42.054;24.546;2023-02-15T04:19:47;99431.50;;;2.61;92.79
20023;BME280;10172;42.054;24.546;2023-02-15T04:22:31;99427.19;;;3.05;89.80
20023;BME280;10172;42.054;24.546;2023-02-15T04:25:15;99431.47;;;3.09;87.97
20023;BME280;10172;42.054;24.546;2023-02-15T04:27:44;99436.25;;;2.88;89.08
20023;BME280;10172;42.054;24.546;2023-02-15T04:30:11;99435.22;;;2.51;92.36
20023;BME280;10172;42.054;24.546;2023-02-15T04:32:37;99434.53;;;2.38;93.97
20023;BME280;10172;42.054;24.546;2023-02-15T04:35:04;99427.56;;;1.83;98.90
20023;BME280;10172;42.054;24.546;2023-02-15T04:37:31;99432.50;;;2.02;98.70
20023;BME280;10172;42.054;24.546;2023-02-15T04:39:56;99441.72;;;2.76;92.88
20023;BME280;10172;42.054;24.546;2023-02-15T04:42:24;99434.81;;;2.72;91.80
20023;BME280;10172;42.054;24.546;2023-02-15T04:44:50;99442.66;;;2.74;91.71
20023;BME280;10172;42.054;24.546;2023-02-15T04:47:15;99449.88;;;3.09;88.78
20023;BME280;10172;42.054;24.546;2023-02-15T04:49:41;99448.13;;;3.09;87.50
20023;BME280;10172;42.054;24.546;2023-02-15T04:52:06;99445.66;;;3.01;87.80
20023;BME280;10172;42.054;24.546;2023-02-15T04:54:32;99446.88;;;2.82;89.84
20023;BME280;10172;42.054;24.546;2023-02-15T04:56:57;99447.97;;;2.71;90.94
20023;BME280;10172;42.054;24.546;2023-02-15T04:59:23;99452.38;;;2.69;92.88
20023;BME280;10172;42.054;24.546;2023-02-15T05:01:48;99449.56;;;2.81;91.20
20023;BME280;10172;42.054;24.546;2023-02-15T05:04:13;99466.69;;;3.01;89.67
20023;BME280;10172;42.054;24.546;2023-02-15T05:06:39;99461.03;;;3.21;88.06
20023;BME280;10172;42.054;24.546;2023-02-15T05:09:04;99471.13;;;2.98;89.05
20023;BME280;10172;42.054;24.546;2023-02-15T05:11:30;99482.66;;;2.91;89.51
20023;BME280;10172;42.054;24.546;2023-02-15T05:13:55;99488.44;;;3.10;89.53
20023;BME280;10172;42.054;24.546;2023-02-15T05:16:21;99487.56;;;3.09;89.06
20023;BME280;10172;42.054;24.546;2023-02-15T05:18:46;99492.28;;;3.36;87.38
20023;BME280;10172;42.054;24.546;2023-02-15T05:21:12;99507.66;;;3.13;88.70
20023;BME280;10172;42.054;24.546;2023-02-15T05:23:39;99496.72;;;3.33;87.17
20023;BME280;10172;42.054;24.546;2023-02-15T05:26:04;99493.84;;;3.02;89.75
20023;BME280;10172;42.054;24.546;2023-02-15T05:28:48;99512.19;;;3.49;87.03
20023;BME280;10172;42.054;24.546;2023-02-15T05:31:17;99504.00;;;3.65;85.56
20023;BME280;10172;42.054;24.546;2023-02-15T05:33:43;99509.06;;;3.31;87.27
20023;BME280;10172;42.054;24.546;2023-02-15T05:36:09;99519.09;;;2.60;93.73
20023;BME280;10172;42.054;24.546;2023-02-15T05:38:35;99520.53;;;2.79;93.99
20023;BME280;10172;42.054;24.546;2023-02-15T05:41:04;99515.59;;;3.10;91.41
20023;BME280;10172;42.054;24.546;2023-02-15T05:43:31;99517.31;;;3.11;90.71
20023;BME280;10172;42.054;24.546;2023-02-15T05:45:56;99524.03;;;2.26;97.31
20023;BME280;10172;42.054;24.546;2023-02-15T05:48:24;99528.03;;;2.50;96.81
20023;BME280;10172;42.054;24.546;2023-02-15T05:51:08;99531.31;;;3.13;91.58
20023;BME280;10172;42.054;24.546;2023-02-15T05:53:36;99534.00;;;3.09;90.98
20023;BME280;10172;42.054;24.546;2023-02-15T05:56:02;99541.31;;;2.93;93.36
20023;BME280;10172;42.054;24.546;2023-02-15T05:58:35;99538.13;;;2.74;94.65
20023;BME280;10172;42.054;24.546;2023-02-15T06:01:08;99545.19;;;3.21;91.25
20023;BME280;10172;42.054;24.546;2023-02-15T06:03:34;99535.25;;;3.37;90.33
20023;BME280;10172;42.054;24.546;2023-02-15T06:05:59;99545.13;;;2.75;94.38
20023;BME280;10172;42.054;24.546;2023-02-15T06:08:25;99541.63;;;2.73;95.12
20023;BME280;10172;42.054;24.546;2023-02-15T06:10:50;99542.63;;;3.18;92.65
20023;BME280;10172;42.054;24.546;2023-02-15T06:13:16;99548.25;;;3.44;89.70
20023;BME280;10172;42.054;24.546;2023-02-15T06:15:41;99555.25;;;3.45;89.86
20023;BME280;10172;42.054;24.546;2023-02-15T06:18:07;99542.31;;;3.33;90.38
20023;BME280;10172;42.054;24.546;2023-02-15T06:20:32;99546.75;;;3.31;90.81
20023;BME280;10172;42.054;24.546;2023-02-15T06:22:58;99549.25;;;3.82;87.12
20023;BME280;10172;42.054;24.546;2023-02-15T06:25:23;99543.78;;;3.91;84.75
20023;BME280;10172;42.054;24.546;2023-02-15T06:27:49;99544.72;;;3.88;85.31
20023;BME280;10172;42.054;24.546;2023-02-15T06:30:15;99541.38;;;3.80;85.49
20023;BME280;10172;42.054;24.546;2023-02-15T06:32:40;99533.19;;;3.94;84.11
20023;BME280;10172;42.054;24.546;2023-02-15T06:35:06;99551.28;;;4.09;84.20
20023;BME280;10172;42.054;24.546;2023-02-15T06:37:32;99540.56;;;4.56;81.74
20023;BME280;10172;42.054;24.546;2023-02-15T06:39:57;99545.78;;;4.19;81.74
20023;BME280;10172;42.054;24.546;2023-02-15T06:42:24;99543.72;;;4.34;81.63
20023;BME280;10172;42.054;24.546;2023-02-15T06:44:49;99540.69;;;4.12;83.51
20023;BME280;10172;42.054;24.546;2023-02-15T06:47:15;99544.84;;;4.22;82.78
20023;BME280;10172;42.054;24.546;2023-02-15T06:49:40;99534.31;;;4.22;82.74
20023;BME280;10172;42.054;24.546;2023-02-15T06:52:06;99544.41;;;4.42;81.57
20023;BME280;10172;42.054;24.546;2023-02-15T06:54:31;99539.22;;;4.74;80.36
20023;BME280;10172;42.054;24.546;2023-02-15T06:56:57;99539.47;;;4.99;76.88
20023;BME280;10172;42.054;24.546;2023-02-15T06:59:22;99537.88;;;4.93;77.66
20023;BME280;10172;42.054;24.546;2023-02-15T07:01:48;99549.16;;;4.64;78.75
20023;BME280;10172;42.054;24.546;2023-02-15T07:04:14;99541.88;;;4.74;78.91
20023;BME280;10172;42.054;24.546;2023-02-15T07:06:40;99555.72;;;4.83;77.68
20023;BME280;10172;42.054;24.546;2023-02-15T07:09:05;99547.19;;;5.40;75.52
20023;BME280;10172;42.054;24.546;2023-02-15T07:11:31;99559.16;;;5.19;75.46
20023;BME280;10172;42.054;24.546;2023-02-15T07:14:15;99555.94;;;5.42;75.12
20023;BME280;10172;42.054;24.546;2023-02-15T07:16:40;99547.72;;;5.53;73.80
20023;BME280;10172;42.054;24.546;2023-02-15T07:19:06;99547.19;;;5.40;73.55
20023;BME280;10172;42.054;24.546;2023-02-15T07:21:33;99539.66;;;5.57;73.55
20023;BME280;10172;42.054;24.546;2023-02-15T07:23:58;99531.75;;;5.25;74.33
20023;BME280;10172;42.054;24.546;2023-02-15T07:26:24;99527.47;;;5.53;71.89
20023;BME280;10172;42.054;24.546;2023-02-15T07:28:49;99520.25;;;5.90;72.07
20023;BME280;10172;42.054;24.546;2023-02-15T07:31:15;99523.41;;;5.72;72.16
20023;BME280;10172;42.054;24.546;2023-02-15T07:33:40;99529.72;;;5.97;71.74
20023;BME280;10172;42.054;24.546;2023-02-15T07:36:06;99524.84;;;5.52;71.59
20023;BME280;10172;42.054;24.546;2023-02-15T07:38:34;99525.63;;;5.55;72.26
20023;BME280;10172;42.054;24.546;2023-02-15T07:41:05;99523.31;;;5.75;70.96
20023;BME280;10172;42.054;24.546;2023-02-15T07:43:33;99531.72;;;5.89;71.00
20023;BME280;10172;42.054;24.546;2023-02-15T07:46:00;99521.84;;;5.96;70.15
20023;BME280;10172;42.054;24.546;2023-02-15T07:48:26;99524.75;;;5.87;70.95
20023;BME280;10172;42.054;24.546;2023-02-15T07:50:52;99531.94;;;6.11;70.46
20023;BME280;10172;42.054;24.546;2023-02-15T07:53:17;99520.78;;;6.01;69.90
20023;BME280;10172;42.054;24.546;2023-02-15T07:55:43;99532.72;;;6.15;69.13
20023;BME280;10172;42.054;24.546;2023-02-15T07:58:08;99518.25;;;5.98;69.55
20023;BME280;10172;42.054;24.546;2023-02-15T08:00:34;99541.22;;;5.96;69.17
20023;BME280;10172;42.054;24.546;2023-02-15T08:03:19;99529.25;;;5.83;70.08
20023;BME280;10172;42.054;24.546;2023-02-15T08:05:47;99532.28;;;6.30;68.29
20023;BME280;10172;42.054;24.546;2023-02-15T08:08:12;99529.41;;;6.36;68.20
20023;BME280;10172;42.054;24.546;2023-02-15T08:11:06;99532.81;;;6.12;69.13
20023;BME280;10172;42.054;24.546;2023-02-15T08:13:52;99529.91;;;6.48;67.65
20023;BME280;10172;42.054;24.546;2023-02-15T08:16:28;99533.56;;;6.72;66.20
20023;BME280;10172;42.054;24.546;2023-02-15T08:18:54;99531.94;;;6.94;65.46
20023;BME280;10172;42.054;24.546;2023-02-15T08:21:21;99539.47;;;6.52;67.76
20023;BME280;10172;42.054;24.546;2023-02-15T08:23:46;99515.81;;;7.00;67.76
20023;BME280;10172;42.054;24.546;2023-02-15T08:26:12;99539.84;;;7.20;66.44
20023;BME280;10172;42.054;24.546;2023-02-15T08:28:38;99520.53;;;7.17;64.42
20023;BME280;10172;42.054;24.546;2023-02-15T08:31:11;99531.81;;;7.23;65.76
20023;BME280;10172;42.054;24.546;2023-02-15T08:33:39;99526.88;;;6.60;66.83
20023;BME280;10172;42.054;24.546;2023-02-15T08:36:07;99537.44;;;6.33;68.33
20023;BME280;10172;42.054;24.546;2023-02-15T08:38:33;99530.09;;;6.70;67.16
20023;BME280;10172;42.054;24.546;2023-02-15T08:43:45;99527.13;;;6.79;66.42
20023;BME280;10172;42.054;24.546;2023-02-15T08:46:12;99524.81;;;6.96;66.34
20023;BME280;10172;42.054;24.546;2023-02-15T08:48:39;99517.69;;;6.44;68.96
20023;BME280;10172;42.054;24.546;2023-02-15T08:51:09;99518.59;;;6.71;67.63
20023;BME280;10172;42.054;24.546;2023-02-15T08:53:37;99520.00;;;7.07;66.43
20023;BME280;10172;42.054;24.546;2023-02-15T08:56:02;99520.16;;;7.28;65.49
20023;BME280;10172;42.054;24.546;2023-02-15T08:58:29;99526.53;;;6.97;66.87
20023;BME280;10172;42.054;24.546;2023-02-15T09:00:56;99527.78;;;7.86;63.54
20023;BME280;10172;42.054;24.546;2023-02-15T09:03:21;99524.28;;;7.11;64.45
20023;BME280;10172;42.054;24.546;2023-02-15T09:05:47;99521.25;;;7.47;64.75
20023;BME280;10172;42.054;24.546;2023-02-15T09:08:12;99518.13;;;7.60;64.85
20023;BME280;10172;42.054;24.546;2023-02-15T09:10:38;99517.03;;;7.66;62.94
20023;BME280;10172;42.054;24.546;2023-02-15T09:13:03;99517.38;;;7.57;63.66
20023;BME280;10172;42.054;24.546;2023-02-15T09:15:29;99503.84;;;7.88;63.20
20023;BME280;10172;42.054;24.546;2023-02-15T09:17:54;99507.72;;;8.02;61.87
20023;BME280;10172;42.054;24.546;2023-02-15T09:20:19;99509.22;;;8.32;61.23
20023;BME280;10172;42.054;24.546;2023-02-15T09:22:45;99509.38;;;8.28;62.12
20023;BME280;10172;42.054;24.546;2023-02-15T09:25:10;99511.16;;;8.27;61.06
20023;BME280;10172;42.054;24.546;2023-02-15T09:27:38;99500.69;;;7.78;61.97
20023;BME280;10172;42.054;24.546;2023-02-15T09:30:05;99497.47;;;8.16;61.97
20023;BME280;10172;42.054;24.546;2023-02-15T09:32:31;99491.53;;;8.10;60.52
20023;BME280;10172;42.054;24.546;2023-02-15T09:34:56;99485.88;;;8.19;60.51
20023;BME280;10172;42.054;24.546;2023-02-15T09:37:22;99499.91;;;8.66;58.79
20023;BME280;10172;42.054;24.546;2023-02-15T09:39:47;99498.00;;;8.03;60.36
20023;BME280;10172;42.054;24.546;2023-02-15T09:58:08;99493.00;;;8.62;59.54
20023;BME280;10172;42.054;24.546;2023-02-15T10:11:38;99471.94;;;9.59;55.19
20023;BME280;10172;42.054;24.546;2023-02-15T10:14:37;99477.19;;;9.00;56.32
20023;BME280;10172;42.054;24.546;2023-02-15T10:26:02;99460.31;;;9.62;54.50
20023;BME280;10172;42.054;24.546;2023-02-15T10:28:48;99456.09;;;9.18;56.17
20023;BME280;10172;42.054;24.546;2023-02-15T10:31:24;99461.88;;;9.07;56.69
20023;BME280;10172;42.054;24.546;2023-02-15T10:34:17;99451.41;;;10.56;54.12
20023;BME280;10172;42.054;24.546;2023-02-15T10:36:58;99437.31;;;10.36;54.16
20023;BME280;10172;42.054;24.546;2023-02-15T11:01:10;99420.72;;;9.37;55.50
20023;BME280;10172;42.054;24.546;2023-02-15T11:06:30;99411.09;;;10.64;53.28
20023;BME280;10172;42.054;24.546;2023-02-15T11:09:02;99417.03;;;11.70;49.62
20023;BME280;10172;42.054;24.546;2023-02-15T11:11:33;99401.66;;;11.43;50.10
20023;BME280;10172;42.054;24.546;2023-02-15T11:14:03;99397.88;;;11.79;49.76
20023;BME280;10172;42.054;24.546;2023-02-15T11:16:34;99411.16;;;10.45;50.86
20023;BME280;10172;42.054;24.546;2023-02-15T11:19:06;99408.47;;;9.53;53.23
20023;BME280;10172;42.054;24.546;2023-02-15T11:21:42;99399.00;;;9.67;53.32
20023;BME280;10172;42.054;24.546;2023-02-15T11:24:13;99410.75;;;10.17;52.82
20023;BME280;10172;42.054;24.546;2023-02-15T11:26:43;99394.09;;;9.95;53.86
20023;BME280;10172;42.054;24.546;2023-02-15T11:31:57;99390.19;;;10.91;51.68
20023;BME280;10172;42.054;24.546;2023-02-15T11:34:35;99381.97;;;10.95;50.93
20023;BME280;10172;42.054;24.546;2023-02-15T11:37:12;99382.22;;;10.91;50.63
20023;BME280;10172;42.054;24.546;2023-02-15T11:39:42;99369.78;;;10.57;51.33
20023;BME280;10172;42.054;24.546;2023-02-15T11:42:14;99373.13;;;10.60;50.25
20023;BME280;10172;42.054;24.546;2023-02-15T11:47:18;99362.50;;;10.77;49.44
20023;BME280;10172;42.054;24.546;2023-02-15T11:49:45;99356.41;;;10.75;49.80
20023;BME280;10172;42.054;24.546;2023-02-15T11:52:13;99352.97;;;11.39;49.26
20023;BME280;10172;42.054;24.546;2023-02-15T11:54:46;99352.25;;;12.60;46.42
20023;BME280;10172;42.054;24.546;2023-02-15T11:59:40;99345.56;;;10.44;49.18
20023;BME280;10172;42.054;24.546;2023-02-15T12:02:20;99337.00;;;11.06;49.28
20023;BME280;10172;42.054;24.546;2023-02-15T12:04:56;99347.28;;;10.97;48.65
20023;BME280;10172;42.054;24.546;2023-02-15T12:07:26;99348.69;;;11.36;48.83
20023;BME280;10172;42.054;24.546;2023-02-15T12:10:00;99339.66;;;12.78;45.51
20023;BME280;10172;42.054;24.546;2023-02-15T12:12:34;99337.41;;;12.71;43.78
20023;BME280;10172;42.054;24.546;2023-02-15T12:15:09;99333.69;;;11.18;47.64
20023;BME280;10172;42.054;24.546;2023-02-15T12:17:39;99336.47;;;11.81;46.69
20023;BME280;10172;42.054;24.546;2023-02-15T12:22:46;99335.06;;;11.25;47.74
20023;BME280;10172;42.054;24.546;2023-02-15T12:25:52;99340.22;;;11.61;46.48
20023;BME280;10172;42.054;24.546;2023-02-15T12:28:41;99344.06;;;11.40;46.03
20023;BME280;10172;42.054;24.546;2023-02-15T12:31:20;99344.25;;;11.68;45.67
20023;BME280;10172;42.054;24.546;2023-02-15T12:33:46;99331.28;;;11.62;45.34
20023;BME280;10172;42.054;24.546;2023-02-15T12:36:18;99344.72;;;11.76;44.08
20023;BME280;10172;42.054;24.546;2023-02-15T12:41:27;99333.91;;;12.84;42.01
20023;BME280;10172;42.054;24.546;2023-02-15T12:46:34;99335.53;;;13.45;41.27
20023;BME280;10172;42.054;24.546;2023-02-15T12:49:19;99328.06;;;13.50;41.49
20023;BME280;10172;42.054;24.546;2023-02-15T12:51:50;99333.94;;;12.09;43.01
20023;BME280;10172;42.054;24.546;2023-02-15T12:56:48;99329.94;;;12.91;41.61
20023;BME280;10172;42.054;24.546;2023-02-15T12:59:15;99328.09;;;13.22;41.72
20023;BME280;10172;42.054;24.546;2023-02-15T13:01:46;99320.38;;;12.87;41.87
20023;BME280;10172;42.054;24.546;2023-02-15T13:04:28;99318.94;;;12.82;41.95
20023;BME280;10172;42.054;24.546;2023-02-15T13:07:02;99327.75;;;12.09;43.24
20023;BME280;10172;42.054;24.546;2023-02-15T13:11:57;99313.50;;;13.13;41.42
20023;BME280;10172;42.054;24.546;2023-02-15T13:14:34;99312.50;;;12.56;42.05
20023;BME280;10172;42.054;24.546;2023-02-15T13:17:03;99314.66;;;11.57;42.43
20023;BME280;10172;42.054;24.546;2023-02-15T13:19:50;99315.66;;;12.33;42.84
20023;BME280;10172;42.054;24.546;2023-02-15T13:22:30;99307.34;;;12.53;41.82
20023;BME280;10172;42.054;24.546;2023-02-15T13:25:04;99303.94;;;13.09;40.76
20023;BME280;10172;42.054;24.546;2023-02-15T13:27:36;99294.25;;;12.92;41.22
20023;BME280;10172;42.054;24.546;2023-02-15T13:30:15;99299.31;;;12.83;41.95
20023;BME280;10172;42.054;24.546;2023-02-15T13:32:45;99300.31;;;13.24;40.97
20023;BME280;10172;42.054;24.546;2023-02-15T13:35:15;99306.47;;;13.81;39.28
20023;BME280;10172;42.054;24.546;2023-02-15T13:40:52;99294.06;;;13.52;39.00
20023;BME280;10172;42.054;24.546;2023-02-15T13:57:12;99290.38;;;13.40;38.94
20023;BME280;10172;42.054;24.546;2023-02-15T14:18:07;99279.66;;;13.54;38.66
20023;BME280;10172;42.054;24.546;2023-02-15T14:23:33;99287.16;;;13.35;37.82
20023;BME280;10172;42.054;24.546;2023-02-15T14:28:51;99282.06;;;13.45;38.11
20023;BME280;10172;42.054;24.546;2023-02-15T14:31:28;99293.88;;;12.98;39.26
20023;BME280;10172;42.054;24.546;2023-02-15T14:33:57;99285.47;;;13.61;38.96
20023;BME280;10172;42.054;24.546;2023-02-15T14:36:23;99282.41;;;13.67;38.82
20023;BME280;10172;42.054;24.546;2023-02-15T14:39:11;99286.84;;;13.95;38.09
20023;BME280;10172;42.054;24.546;2023-02-15T14:45:02;99286.84;;;13.26;39.39
20023;BME280;10172;42.054;24.546;2023-02-15T14:47:40;99288.34;;;13.58;38.60
20023;BME280;10172;42.054;24.546;2023-02-15T14:58:30;99288.69;;;13.80;38.64
20023;BME280;10172;42.054;24.546;2023-02-15T15:01:06;99287.38;;;14.26;37.52
20023;BME280;10172;42.054;24.546;2023-02-15T15:03:33;99291.38;;;12.95;40.88
20023;BME280;10172;42.054;24.546;2023-02-15T15:06:02;99300.19;;;11.78;42.85
20023;BME280;10172;42.054;24.546;2023-02-15T15:08:36;99304.69;;;12.23;42.74
20023;BME280;10172;42.054;24.546;2023-02-15T15:13:59;99291.09;;;10.86;47.84
20023;BME280;10172;42.054;24.546;2023-02-15T15:19:04;99311.69;;;10.13;50.75
20023;BME280;10172;42.054;24.546;2023-02-15T15:27:40;99312.25;;;9.28;53.80
20023;BME280;10172;42.054;24.546;2023-02-15T15:49:20;99344.56;;;7.95;60.19
20023;BME280;10172;42.054;24.546;2023-02-15T15:51:46;99351.84;;;7.68;60.33
20023;BME280;10172;42.054;24.546;2023-02-15T15:54:22;99352.63;;;7.26;62.95
20023;BME280;10172;42.054;24.546;2023-02-15T15:57:02;99351.38;;;6.88;64.07
20023;BME280;10172;42.054;24.546;2023-02-15T15:59:31;99347.84;;;7.12;64.13
20023;BME280;10172;42.054;24.546;2023-02-15T16:02:04;99344.09;;;6.94;63.71
20023;BME280;10172;42.054;24.546;2023-02-15T16:04:32;99343.53;;;6.61;65.47
20023;BME280;10172;42.054;24.546;2023-02-15T16:09:39;99360.84;;;6.70;65.67
20023;BME280;10172;42.054;24.546;2023-02-15T16:12:05;99351.25;;;7.15;62.72
20023;BME280;10172;42.054;24.546;2023-02-15T16:14:40;99338.78;;;7.41;61.66
20023;BME280;10172;42.054;24.546;2023-02-15T16:17:13;99346.78;;;7.84;58.81
20023;BME280;10172;42.054;24.546;2023-02-15T16:19:40;99342.97;;;7.48;60.35
20023;BME280;10172;42.054;24.546;2023-02-15T16:22:16;99343.19;;;7.18;60.98
20023;BME280;10172;42.054;24.546;2023-02-15T16:27:40;99348.03;;;7.07;61.83
20023;BME280;10172;42.054;24.546;2023-02-15T16:30:30;99351.50;;;6.85;63.20
20023;BME280;10172;42.054;24.546;2023-02-15T16:33:11;99353.09;;;7.13;61.69
20023;BME280;10172;42.054;24.546;2023-02-15T16:35:39;99348.47;;;7.42;59.67
20023;BME280;10172;42.054;24.546;2023-02-15T16:38:08;99352.66;;;7.01;61.93
20023;BME280;10172;42.054;24.546;2023-02-15T16:40:46;99353.31;;;7.31;60.12